sensor_id;sensor_type;location;lat;lon;timestamp;pressure;altitude;pressure_sealevel;temperature;humidity
38400;BME280;24180;42.676;23.320;2022-10-31T00:00:06;95246.13;;;14.38;100.00
38400;BME280;24180;42.676;23.320;2022-10-31T00:02:32;95237.81;;;14.35;100.00
38400;BME280;24180;42.676;23.320;2022-10-31T00:04:57;95238.31;;;14.38;100.00
38400;BME280;24180;42.676;23.320;2022-10-31T00:07:23;95251.25;;;14.48;100.00
38400;BME280;24180;42.676;23.320;2022-10-31T00:09:48;95238.47;;;14.37;100.00
38400;BME280;24180;42.676;23.320;2022-10-31T00:12:14;95237.81;;;14.35;100.00
38400;BME280;24180;42.676;23.320;2022-10-31T00:14:39;95240.72;;;14.32;100.00
38400;BME280;24180;42.676;23.320;2022-10-31T00:17:05;95235.28;;;14.25;100.00
38400;BME280;24180;42.676;23.320;2022-10-31T00:19:30;95243.53;;;14.38;100.00
38400;BME280;24180;42.676;23.320;2022-10-31T00:21:56;95238.38;;;14.46;100.00
38400;BME280;24180;42.676;23.320;2022-10-31T00:24:21;95247.38;;;14.34;100.00
38400;BME280;24180;42.676;23.320;2022-10-31T00:26:46;95243.53;;;14.38;100.00
38400;BME280;24180;42.676;23.320;2022-10-31T00:29:12;95239.50;;;14.44;100.00
38400;BME280;24180;42.676;23.320;2022-10-31T00:31:38;95223.75;;;14.28;100.00
38400;BME280;24180;42.676;23.320;2022-10-31T00:34:03;95233.19;;;14.29;100.00
38400;BME280;24180;42.676;23.320;2022-10-31T00:36:28;95237.56;;;14.28;100.00
38400;BME280;24180;42.676;23.320;2022-10-31T00:38:54;95235.88;;;14.37;100.00
38400;BME280;24180;42.676;23.320;2022-10-31T00:41:19;95238.72;;;14.26;100.00
38400;BME280;24180;42.676;23.320;2022-10-31T00:43:45;95245.69;;;14.25;100.00
38400;BME280;24180;42.676;23.320;2022-10-31T00:46:12;95233.63;;;14.16;100.00
38400;BME280;24180;42.676;23.320;2022-10-31T00:48:39;95232.53;;;14.01;100.00
38400;BME280;24180;42.676;23.320;2022-10-31T00:51:04;95234.84;;;14.04;100.00
38400;BME280;24180;42.676;23.320;2022-10-31T00:53:30;95238.81;;;13.90;100.00
38400;BME280;24180;42.676;23.320;2022-10-31T00:55:55;95238.00;;;14.16;100.00
38400;BME280;24180;42.676;23.320;2022-10-31T00:58:21;95228.50;;;14.06;100.00
38400;BME280;24180;42.676;23.320;2022-10-31T01:00:48;95237.78;;;14.09;100.00
38400;BME280;24180;42.676;23.320;2022-10-31T01:03:23;95239.34;;;14.20;100.00
38400;BME280;24180;42.676;23.320;2022-10-31T01:06:01;95235.34;;;14.07;100.00
38400;BME280;24180;42.676;23.320;2022-10-31T01:08:27;95239.00;;;13.97;100.00
38400;BME280;24180;42.676;23.320;2022-10-31T01:11:09;95241.03;;;13.85;100.00
38400;BME280;24180;42.676;23.320;2022-10-31T01:13:36;95242.94;;;13.75;100.00
38400;BME280;24180;42.676;23.320;2022-10-31T01:16:02;95242.47;;;13.80;100.00
38400;BME280;24180;42.676;23.320;2022-10-31T01:18:28;95242.63;;;13.78;100.00
38400;BME280;24180;42.676;23.320;2022-10-31T01:21:19;95244.19;;;13.71;100.00
38400;BME280;24180;42.676;23.320;2022-10-31T01:23:43;95256.00;;;13.83;100.00
38400;BME280;24180;42.676;23.320;2022-10-31T01:26:12;95240.31;;;13.75;100.00
38400;BME280;24180;42.676;23.320;2022-10-31T01:28:43;95246.75;;;13.89;100.00
38400;BME280;24180;42.676;23.320;2022-10-31T01:31:09;95242.16;;;14.08;100.00
38400;BME280;24180;42.676;23.320;2022-10-31T01:33:36;95250.34;;;14.14;100.00
38400;BME280;24180;42.676;23.320;2022-10-31T01:36:11;95252.63;;;14.17;100.00
38400;BME280;24180;42.676;23.320;2022-10-31T01:38:37;95249.69;;;14.12;100.00
38400;BME280;24180;42.676;23.320;2022-10-31T01:41:02;95259.94;;;14.13;100.00
38400;BME280;24180;42.676;23.320;2022-10-31T01:46:13;95255.88;;;14.36;100.00
38400;BME280;24180;42.676;23.320;2022-10-31T01:48:40;95256.34;;;14.32;100.00
38400;BME280;24180;42.676;23.320;2022-10-31T01:51:07;95266.22;;;14.46;100.00
38400;BME280;24180;42.676;23.320;2022-10-31T01:53:35;95254.69;;;14.31;100.00
38400;BME280;24180;42.676;23.320;2022-10-31T01:56:00;95257.91;;;14.25;100.00
38400;BME280;24180;42.676;23.320;2022-10-31T01:58:29;95258.84;;;14.41;100.00
38400;BME280;24180;42.676;23.320;2022-10-31T02:00:58;95254.53;;;14.32;100.00
38400;BME280;24180;42.676;23.320;2022-10-31T02:03:25;95266.84;;;14.40;100.00
38400;BME280;24180;42.676;23.320;2022-10-31T02:05:53;95247.94;;;14.38;100.00
38400;BME280;24180;42.676;23.320;2022-10-31T02:08:40;95246.97;;;14.21;100.00
38400;BME280;24180;42.676;23.320;2022-10-31T02:11:08;95248.31;;;14.25;100.00
38400;BME280;24180;42.676;23.320;2022-10-31T02:13:34;95236.91;;;14.26;100.00
38400;BME280;24180;42.676;23.320;2022-10-31T02:16:00;95244.28;;;14.31;100.00
38400;BME280;24180;42.676;23.320;2022-10-31T02:18:27;95239.53;;;14.26;100.00
38400;BME280;24180;42.676;23.320;2022-10-31T02:37:28;95263.78;;;14.27;100.00
38400;BME280;24180;42.676;23.320;2022-10-31T02:42:33;95267.69;;;14.05;100.00
38400;BME280;24180;42.676;23.320;2022-10-31T02:45:10;95279.91;;;14.04;100.00
38400;BME280;24180;42.676;23.320;2022-10-31T02:47:38;95281.22;;;13.83;100.00
38400;BME280;24180;42.676;23.320;2022-10-31T02:52:36;95279.63;;;13.72;100.00
38400;BME280;24180;42.676;23.320;2022-10-31T02:57:57;95278.75;;;13.46;100.00
38400;BME280;24180;42.676;23.320;2022-10-31T03:00:24;95278.91;;;13.44;100.00
38400;BME280;24180;42.676;23.320;2022-10-31T03:08:15;95290.44;;;13.42;100.00
38400;BME280;24180;42.676;23.320;2022-10-31T03:11:03;95290.94;;;13.45;100.00
38400;BME280;24180;42.676;23.320;2022-10-31T03:13:56;95294.25;;;13.47;100.00
38400;BME280;24180;42.676;23.320;2022-10-31T03:16:29;95277.94;;;13.28;100.00
38400;BME280;24180;42.676;23.320;2022-10-31T03:19:05;95288.69;;;13.33;100.00
38400;BME280;24180;42.676;23.320;2022-10-31T03:21:42;95281.81;;;13.24;100.00
38400;BME280;24180;42.676;23.320;2022-10-31T03:24:10;95293.06;;;13.15;100.00
38400;BME280;24180;42.676;23.320;2022-10-31T03:26:39;95286.41;;;13.02;100.00
38400;BME280;24180;42.676;23.320;2022-10-31T03:29:08;95293.88;;;12.88;100.00
38400;BME280;24180;42.676;23.320;2022-10-31T03:31:40;95291.53;;;12.85;100.00
38400;BME280;24180;42.676;23.320;2022-10-31T03:34:08;95293.16;;;12.95;100.00
38400;BME280;24180;42.676;23.320;2022-10-31T03:36:37;95290.19;;;12.81;100.00
38400;BME280;24180;42.676;23.320;2022-10-31T03:39:06;95291.88;;;12.72;100.00
38400;BME280;24180;42.676;23.320;2022-10-31T03:41:39;95295.47;;;12.61;100.00
38400;BME280;24180;42.676;23.320;2022-10-31T03:44:12;95305.31;;;12.68;100.00
38400;BME280;24180;42.676;23.320;2022-10-31T03:46:41;95310.06;;;12.72;100.00
38400;BME280;24180;42.676;23.320;2022-10-31T03:49:08;95312.56;;;12.64;100.00
38400;BME280;24180;42.676;23.320;2022-10-31T03:51:55;95310.81;;;12.55;100.00
38400;BME280;24180;42.676;23.320;2022-10-31T03:56:57;95324.28;;;12.31;100.00
38400;BME280;24180;42.676;23.320;2022-10-31T03:59:35;95317.47;;;12.20;100.00
38400;BME280;24180;42.676;23.320;2022-10-31T04:02:06;95324.06;;;12.15;100.00
38400;BME280;24180;42.676;23.320;2022-10-31T04:04:34;95322.41;;;12.04;100.00
38400;BME280;24180;42.676;23.320;2022-10-31T04:07:01;95329.81;;;11.99;100.00
38400;BME280;24180;42.676;23.320;2022-10-31T04:09:31;95327.59;;;12.04;100.00
38400;BME280;24180;42.676;23.320;2022-10-31T04:11:59;95329.13;;;11.97;100.00
38400;BME280;24180;42.676;23.320;2022-10-31T04:14:27;95322.97;;;11.89;100.00
38400;BME280;24180;42.676;23.320;2022-10-31T04:16:56;95335.91;;;12.27;100.00
38400;BME280;24180;42.676;23.320;2022-10-31T04:19:21;95329.75;;;12.28;100.00
38400;BME280;24180;42.676;23.320;2022-10-31T04:21:46;95324.31;;;12.22;100.00
38400;BME280;24180;42.676;23.320;2022-10-31T04:24:12;95326.34;;;12.28;100.00
38400;BME280;24180;42.676;23.320;2022-10-31T04:26:37;95324.84;;;12.25;100.00
38400;BME280;24180;42.676;23.320;2022-10-31T04:29:03;95321.53;;;12.42;100.00
38400;BME280;24180;42.676;23.320;2022-10-31T04:31:29;95324.41;;;12.30;100.00
38400;BME280;24180;42.676;23.320;2022-10-31T04:33:54;95332.22;;;12.30;100.00
38400;BME280;24180;42.676;23.320;2022-10-31T04:36:20;95326.88;;;12.31;100.00
38400;BME280;24180;42.676;23.320;2022-10-31T04:38:45;95332.63;;;12.35;100.00
38400;BME280;24180;42.676;23.320;2022-10-31T04:41:12;95331.94;;;12.33;100.00
38400;BME280;24180;42.676;23.320;2022-10-31T04:43:37;95318.44;;;12.00;100.00
38400;BME280;24180;42.676;23.320;2022-10-31T04:46:03;95339.91;;;12.02;100.00
38400;BME280;24180;42.676;23.320;2022-10-31T04:48:29;95333.06;;;12.01;100.00
38400;BME280;24180;42.676;23.320;2022-10-31T04:50:59;95337.03;;;12.15;100.00
38400;BME280;24180;42.676;23.320;2022-10-31T04:53:24;95341.38;;;12.24;100.00
38400;BME280;24180;42.676;23.320;2022-10-31T04:55:51;95348.63;;;12.30;100.00
38400;BME280;24180;42.676;23.320;2022-10-31T04:58:18;95351.38;;;12.19;100.00
38400;BME280;24180;42.676;23.320;2022-10-31T05:00:43;95351.78;;;12.14;100.00
38400;BME280;24180;42.676;23.320;2022-10-31T05:03:09;95350.13;;;12.04;100.00
38400;BME280;24180;42.676;23.320;2022-10-31T05:05:34;95355.91;;;12.07;100.00
38400;BME280;24180;42.676;23.320;2022-10-31T05:08:00;95367.50;;;11.94;100.00
38400;BME280;24180;42.676;23.320;2022-10-31T05:10:28;95365.72;;;12.04;100.00
38400;BME280;24180;42.676;23.320;2022-10-31T05:12:56;95357.38;;;12.00;100.00
38400;BME280;24180;42.676;23.320;2022-10-31T05:15:23;95360.81;;;11.91;100.00
38400;BME280;24180;42.676;23.320;2022-10-31T05:17:50;95369.69;;;11.79;100.00
38400;BME280;24180;42.676;23.320;2022-10-31T05:20:19;95365.88;;;11.83;100.00
38400;BME280;24180;42.676;23.320;2022-10-31T05:22:46;95375.97;;;12.05;100.00
38400;BME280;24180;42.676;23.320;2022-10-31T05:25:13;95378.69;;;12.13;100.00
38400;BME280;24180;42.676;23.320;2022-10-31T05:27:43;95371.34;;;11.99;100.00
38400;BME280;24180;42.676;23.320;2022-10-31T05:30:10;95382.09;;;12.04;100.00
38400;BME280;24180;42.676;23.320;2022-10-31T05:32:40;95371.72;;;11.85;100.00
38400;BME280;24180;42.676;23.320;2022-10-31T05:35:07;95374.31;;;11.85;100.00
38400;BME280;24180;42.676;23.320;2022-10-31T05:37:34;95378.97;;;11.82;100.00
38400;BME280;24180;42.676;23.320;2022-10-31T05:40:01;95391.00;;;11.83;100.00
38400;BME280;24180;42.676;23.320;2022-10-31T05:42:27;95389.06;;;11.75;100.00
38400;BME280;24180;42.676;23.320;2022-10-31T05:44:52;95385.66;;;11.75;100.00
38400;BME280;24180;42.676;23.320;2022-10-31T05:47:18;95387.44;;;11.74;100.00
38400;BME280;24180;42.676;23.320;2022-10-31T05:49:43;95389.31;;;11.72;100.00
38400;BME280;24180;42.676;23.320;2022-10-31T05:52:09;95385.19;;;11.50;100.00
38400;BME280;24180;42.676;23.320;2022-10-31T05:54:34;95385.47;;;11.57;100.00
38400;BME280;24180;42.676;23.320;2022-10-31T05:56:59;95389.56;;;11.69;100.00
38400;BME280;24180;42.676;23.320;2022-10-31T05:59:25;95390.09;;;11.53;100.00
38400;BME280;24180;42.676;23.320;2022-10-31T06:01:50;95393.94;;;11.59;100.00
38400;BME280;24180;42.676;23.320;2022-10-31T06:04:16;95396.94;;;11.64;100.00
38400;BME280;24180;42.676;23.320;2022-10-31T06:06:41;95403.94;;;11.73;100.00
38400;BME280;24180;42.676;23.320;2022-10-31T06:09:08;95403.75;;;11.65;100.00
38400;BME280;24180;42.676;23.320;2022-10-31T06:11:35;95405.41;;;11.66;100.00
38400;BME280;24180;42.676;23.320;2022-10-31T06:14:01;95409.75;;;11.56;100.00
38400;BME280;24180;42.676;23.320;2022-10-31T06:16:27;95414.13;;;11.65;100.00
38400;BME280;24180;42.676;23.320;2022-10-31T06:18:53;95419.00;;;11.79;100.00
38400;BME280;24180;42.676;23.320;2022-10-31T06:21:18;95410.50;;;11.77;100.00
38400;BME280;24180;42.676;23.320;2022-10-31T06:23:44;95431.00;;;11.90;100.00
38400;BME280;24180;42.676;23.320;2022-10-31T06:26:09;95421.88;;;11.95;100.00
38400;BME280;24180;42.676;23.320;2022-10-31T06:28:35;95432.53;;;12.02;100.00
38400;BME280;24180;42.676;23.320;2022-10-31T06:31:01;95438.13;;;12.07;100.00
38400;BME280;24180;42.676;23.320;2022-10-31T06:33:26;95432.78;;;12.08;100.00
38400;BME280;24180;42.676;23.320;2022-10-31T06:35:52;95433.75;;;11.98;100.00
38400;BME280;24180;42.676;23.320;2022-10-31T06:38:17;95447.97;;;12.03;100.00
38400;BME280;24180;42.676;23.320;2022-10-31T06:40:43;95435.25;;;12.00;100.00
38400;BME280;24180;42.676;23.320;2022-10-31T06:43:12;95445.91;;;12.16;100.00
38400;BME280;24180;42.676;23.320;2022-10-31T06:45:39;95444.16;;;12.17;100.00
38400;BME280;24180;42.676;23.320;2022-10-31T06:48:05;95438.25;;;12.25;100.00
38400;BME280;24180;42.676;23.320;2022-10-31T06:50:30;95447.97;;;12.23;100.00
38400;BME280;24180;42.676;23.320;2022-10-31T06:52:57;95442.09;;;12.20;100.00
38400;BME280;24180;42.676;23.320;2022-10-31T06:55:24;95439.66;;;12.19;100.00
38400;BME280;24180;42.676;23.320;2022-10-31T06:57:53;95442.38;;;12.17;100.00
38400;BME280;24180;42.676;23.320;2022-10-31T07:00:19;95442.34;;;12.37;100.00
38400;BME280;24180;42.676;23.320;2022-10-31T07:02:53;95436.47;;;12.54;100.00
38400;BME280;24180;42.676;23.320;2022-10-31T07:05:19;95450.84;;;12.68;100.00
38400;BME280;24180;42.676;23.320;2022-10-31T07:07:44;95455.31;;;12.75;100.00
38400;BME280;24180;42.676;23.320;2022-10-31T07:10:09;95452.72;;;12.75;100.00
38400;BME280;24180;42.676;23.320;2022-10-31T07:12:35;95423.31;;;12.75;100.00
38400;BME280;24180;42.676;23.320;2022-10-31T07:15:02;95443.00;;;12.87;100.00
38400;BME280;24180;42.676;23.320;2022-10-31T07:17:28;95445.53;;;12.96;100.00
38400;BME280;24180;42.676;23.320;2022-10-31T07:19:53;95436.78;;;12.97;100.00
38400;BME280;24180;42.676;23.320;2022-10-31T07:22:18;95435.13;;;13.16;100.00
38400;BME280;24180;42.676;23.320;2022-10-31T07:24:44;95414.69;;;13.21;100.00
38400;BME280;24180;42.676;23.320;2022-10-31T07:27:09;95422.47;;;13.30;100.00
38400;BME280;24180;42.676;23.320;2022-10-31T07:29:35;95424.03;;;13.50;100.00
38400;BME280;24180;42.676;23.320;2022-10-31T07:32:00;95418.50;;;13.36;100.00
38400;BME280;24180;42.676;23.320;2022-10-31T07:34:26;95419.94;;;13.48;100.00
38400;BME280;24180;42.676;23.320;2022-10-31T07:36:52;95415.59;;;13.66;100.00
38400;BME280;24180;42.676;23.320;2022-10-31T07:39:17;95429.91;;;13.80;100.00
38400;BME280;24180;42.676;23.320;2022-10-31T07:41:43;95417.63;;;13.90;100.00
38400;BME280;24180;42.676;23.320;2022-10-31T07:44:08;95420.16;;;13.99;100.00
38400;BME280;24180;42.676;23.320;2022-10-31T07:46:34;95417.03;;;13.96;100.00
38400;BME280;24180;42.676;23.320;2022-10-31T07:49:00;95417.56;;;13.99;100.00
38400;BME280;24180;42.676;23.320;2022-10-31T07:51:25;95419.03;;;14.02;100.00
38400;BME280;24180;42.676;23.320;2022-10-31T07:53:51;95402.59;;;14.01;100.00
38400;BME280;24180;42.676;23.320;2022-10-31T07:56:17;95410.94;;;14.23;100.00
38400;BME280;24180;42.676;23.320;2022-10-31T07:58:42;95413.03;;;14.37;100.00
38400;BME280;24180;42.676;23.320;2022-10-31T08:01:08;95424.91;;;14.57;100.00
38400;BME280;24180;42.676;23.320;2022-10-31T08:03:33;95417.47;;;14.62;100.00
38400;BME280;24180;42.676;23.320;2022-10-31T08:05:58;95414.13;;;14.95;100.00
38400;BME280;24180;42.676;23.320;2022-10-31T08:08:24;95415.31;;;15.09;100.00
38400;BME280;24180;42.676;23.320;2022-10-31T08:10:49;95418.19;;;15.24;100.00
38400;BME280;24180;42.676;23.320;2022-10-31T08:13:15;95411.66;;;15.20;100.00
38400;BME280;24180;42.676;23.320;2022-10-31T08:15:41;95425.41;;;15.38;100.00
38400;BME280;24180;42.676;23.320;2022-10-31T08:18:12;95416.03;;;15.53;100.00
38400;BME280;24180;42.676;23.320;2022-10-31T08:20:38;95415.78;;;15.64;100.00
38400;BME280;24180;42.676;23.320;2022-10-31T08:23:04;95413.53;;;15.77;100.00
38400;BME280;24180;42.676;23.320;2022-10-31T08:25:32;95424.50;;;15.97;100.00
38400;BME280;24180;42.676;23.320;2022-10-31T08:27:58;95413.75;;;15.92;100.00
38400;BME280;24180;42.676;23.320;2022-10-31T08:30:27;95417.69;;;16.12;100.00
38400;BME280;24180;42.676;23.320;2022-10-31T08:33:09;95427.97;;;16.22;100.00
38400;BME280;24180;42.676;23.320;2022-10-31T08:35:35;95422.59;;;16.15;100.00
38400;BME280;24180;42.676;23.320;2022-10-31T08:38:01;95416.88;;;16.20;100.00
38400;BME280;24180;42.676;23.320;2022-10-31T08:40:28;95420.16;;;16.38;100.00
38400;BME280;24180;42.676;23.320;2022-10-31T08:43:05;95417.38;;;16.31;100.00
38400;BME280;24180;42.676;23.320;2022-10-31T08:45:32;95420.00;;;16.31;100.00
38400;BME280;24180;42.676;23.320;2022-10-31T08:48:04;95407.91;;;16.47;100.00
38400;BME280;24180;42.676;23.320;2022-10-31T08:50:32;95417.88;;;16.51;100.00
38400;BME280;24180;42.676;23.320;2022-10-31T08:53:06;95408.28;;;16.60;100.00
38400;BME280;24180;42.676;23.320;2022-10-31T08:55:36;95414.13;;;16.70;100.00
38400;BME280;24180;42.676;23.320;2022-10-31T08:58:04;95419.53;;;16.76;100.00
38400;BME280;24180;42.676;23.320;2022-10-31T09:00:30;95418.38;;;16.87;100.00
38400;BME280;24180;42.676;23.320;2022-10-31T09:02:59;95419.19;;;17.04;100.00
38400;BME280;24180;42.676;23.320;2022-10-31T09:05:26;95408.16;;;17.33;100.00
38400;BME280;24180;42.676;23.320;2022-10-31T09:07:57;95396.75;;;17.56;100.00
38400;BME280;24180;42.676;23.320;2022-10-31T09:10:24;95407.34;;;18.02;100.00
38400;BME280;24180;42.676;23.320;2022-10-31T09:12:57;95404.44;;;18.88;100.00
38400;BME280;24180;42.676;23.320;2022-10-31T09:15:23;95393.28;;;20.24;98.88
38400;BME280;24180;42.676;23.320;2022-10-31T09:17:48;95393.53;;;22.03;84.99
38400;BME280;24180;42.676;23.320;2022-10-31T09:20:15;95395.09;;;23.10;74.14
38400;BME280;24180;42.676;23.320;2022-10-31T09:22:41;95388.91;;;23.69;69.46
38400;BME280;24180;42.676;23.320;2022-10-31T09:25:08;95381.56;;;24.22;65.31
38400;BME280;24180;42.676;23.320;2022-10-31T09:27:33;95400.56;;;24.75;59.80
38400;BME280;24180;42.676;23.320;2022-10-31T09:29:58;95387.38;;;25.43;56.67
38400;BME280;24180;42.676;23.320;2022-10-31T09:32:24;95389.97;;;26.34;53.70
38400;BME280;24180;42.676;23.320;2022-10-31T09:34:49;95387.19;;;27.35;49.84
38400;BME280;24180;42.676;23.320;2022-10-31T09:37:15;95387.91;;;27.93;47.12
38400;BME280;24180;42.676;23.320;2022-10-31T09:39:40;95392.09;;;28.58;42.95
38400;BME280;24180;42.676;23.320;2022-10-31T09:45:11;95388.13;;;28.04;43.16
38400;BME280;24180;42.676;23.320;2022-10-31T09:48:23;95390.75;;;28.27;42.68
38400;BME280;24180;42.676;23.320;2022-10-31T09:56:37;95375.94;;;31.10;36.68
38400;BME280;24180;42.676;23.320;2022-10-31T09:59:05;95382.66;;;31.96;34.71
38400;BME280;24180;42.676;23.320;2022-10-31T10:01:47;95380.97;;;32.47;34.18
38400;BME280;24180;42.676;23.320;2022-10-31T10:06:58;95375.16;;;33.36;31.43
38400;BME280;24180;42.676;23.320;2022-10-31T10:09:26;95360.88;;;34.41;30.54
38400;BME280;24180;42.676;23.320;2022-10-31T10:18:10;95366.00;;;33.48;30.73
38400;BME280;24180;42.676;23.320;2022-10-31T10:20:41;95347.56;;;34.64;29.08
38400;BME280;24180;42.676;23.320;2022-10-31T10:25:39;95349.34;;;36.18;27.50
38400;BME280;24180;42.676;23.320;2022-10-31T10:28:19;95339.28;;;37.31;26.03
38400;BME280;24180;42.676;23.320;2022-10-31T10:31:22;95334.53;;;38.23;24.55
38400;BME280;24180;42.676;23.320;2022-10-31T10:36:37;95337.94;;;37.74;24.33
38400;BME280;24180;42.676;23.320;2022-10-31T10:39:22;95323.03;;;37.90;24.02
38400;BME280;24180;42.676;23.320;2022-10-31T10:41:50;95324.13;;;36.04;25.09
38400;BME280;24180;42.676;23.320;2022-10-31T10:44:39;95320.13;;;35.30;26.10
38400;BME280;24180;42.676;23.320;2022-10-31T10:47:33;95319.38;;;36.20;25.64
38400;BME280;24180;42.676;23.320;2022-10-31T10:50:22;95315.75;;;37.18;24.26
38400;BME280;24180;42.676;23.320;2022-10-31T10:53:10;95314.78;;;36.76;24.76
38400;BME280;24180;42.676;23.320;2022-10-31T10:55:55;95312.44;;;33.86;26.99
38400;BME280;24180;42.676;23.320;2022-10-31T10:58:23;95325.88;;;36.37;25.62
38400;BME280;24180;42.676;23.320;2022-10-31T11:00:50;95311.25;;;36.94;23.90
38400;BME280;24180;42.676;23.320;2022-10-31T11:03:18;95322.31;;;36.79;23.96
38400;BME280;24180;42.676;23.320;2022-10-31T11:06:01;95324.03;;;36.51;24.33
38400;BME280;24180;42.676;23.320;2022-10-31T11:13:24;95318.31;;;38.95;22.11
38400;BME280;24180;42.676;23.320;2022-10-31T11:18:43;95305.50;;;35.65;24.83
38400;BME280;24180;42.676;23.320;2022-10-31T11:21:30;95291.97;;;35.17;25.58
38400;BME280;24180;42.676;23.320;2022-10-31T11:26:39;95289.69;;;34.28;26.70
38400;BME280;24180;42.676;23.320;2022-10-31T11:29:13;95299.69;;;34.61;25.92
38400;BME280;24180;42.676;23.320;2022-10-31T11:31:39;95293.22;;;34.96;25.76
38400;BME280;24180;42.676;23.320;2022-10-31T11:34:12;95287.34;;;35.94;24.71
38400;BME280;24180;42.676;23.320;2022-10-31T11:36:42;95290.66;;;36.66;24.24
38400;BME280;24180;42.676;23.320;2022-10-31T11:39:19;95285.63;;;36.92;23.66
38400;BME280;24180;42.676;23.320;2022-10-31T11:41:46;95288.97;;;35.72;24.62
38400;BME280;24180;42.676;23.320;2022-10-31T11:44:18;95286.06;;;37.31;23.74
38400;BME280;24180;42.676;23.320;2022-10-31T11:46:48;95264.03;;;34.80;25.05
38400;BME280;24180;42.676;23.320;2022-10-31T11:49:20;95274.81;;;33.17;27.55
38400;BME280;24180;42.676;23.320;2022-10-31T11:51:49;95267.22;;;35.15;25.77
38400;BME280;24180;42.676;23.320;2022-10-31T11:57:22;95265.97;;;36.22;24.06
38400;BME280;24180;42.676;23.320;2022-10-31T11:59:57;95266.31;;;35.49;24.95
38400;BME280;24180;42.676;23.320;2022-10-31T12:02:24;95264.50;;;35.15;24.92
38400;BME280;24180;42.676;23.320;2022-10-31T12:05:25;95258.19;;;35.30;24.79
38400;BME280;24180;42.676;23.320;2022-10-31T12:07:54;95263.13;;;34.11;26.32
38400;BME280;24180;42.676;23.320;2022-10-31T12:10:21;95258.03;;;34.15;25.63
38400;BME280;24180;42.676;23.320;2022-10-31T12:19:00;95256.94;;;38.91;22.08
38400;BME280;24180;42.676;23.320;2022-10-31T12:21:39;95262.66;;;36.62;23.50
38400;BME280;24180;42.676;23.320;2022-10-31T12:38:22;95250.59;;;37.06;23.48
38400;BME280;24180;42.676;23.320;2022-10-31T12:41:09;95249.47;;;38.74;21.70
38400;BME280;24180;42.676;23.320;2022-10-31T12:49:40;95249.69;;;31.70;27.74
38400;BME280;24180;42.676;23.320;2022-10-31T12:52:15;95249.63;;;29.37;31.17
38400;BME280;24180;42.676;23.320;2022-10-31T12:58:01;95263.38;;;27.96;33.68
38400;BME280;24180;42.676;23.320;2022-10-31T13:00:20;95247.88;;;27.13;35.77
38400;BME280;24180;42.676;23.320;2022-10-31T13:05:43;95237.13;;;26.26;38.71
38400;BME280;24180;42.676;23.320;2022-10-31T13:08:14;95254.47;;;25.99;39.44
38400;BME280;24180;42.676;23.320;2022-10-31T13:13:35;95248.16;;;25.34;41.24
38400;BME280;24180;42.676;23.320;2022-10-31T13:16:15;95252.28;;;25.30;42.48
38400;BME280;24180;42.676;23.320;2022-10-31T13:18:51;95246.88;;;24.82;43.16
38400;BME280;24180;42.676;23.320;2022-10-31T13:21:30;95256.66;;;24.81;43.85
38400;BME280;24180;42.676;23.320;2022-10-31T13:23:59;95254.16;;;24.43;45.52
38400;BME280;24180;42.676;23.320;2022-10-31T13:26:39;95259.84;;;24.47;45.66
38400;BME280;24180;42.676;23.320;2022-10-31T13:31:42;95253.75;;;24.40;46.43
38400;BME280;24180;42.676;23.320;2022-10-31T13:37:27;95257.19;;;23.84;50.19
38400;BME280;24180;42.676;23.320;2022-10-31T13:43:16;95253.03;;;23.70;51.27
38400;BME280;24180;42.676;23.320;2022-10-31T13:45:52;95253.47;;;23.67;51.51
38400;BME280;24180;42.676;23.320;2022-10-31T13:51:00;95248.38;;;23.65;52.55
38400;BME280;24180;42.676;23.320;2022-10-31T13:53:40;95255.97;;;23.49;53.76
38400;BME280;24180;42.676;23.320;2022-10-31T13:58:34;95244.78;;;23.40;54.31
38400;BME280;24180;42.676;23.320;2022-10-31T14:03:39;95253.44;;;23.22;56.35
38400;BME280;24180;42.676;23.320;2022-10-31T14:06:07;95248.25;;;22.83;57.84
38400;BME280;24180;42.676;23.320;2022-10-31T14:08:35;95238.13;;;22.73;58.93
38400;BME280;24180;42.676;23.320;2022-10-31T14:11:02;95242.97;;;22.76;58.32
38400;BME280;24180;42.676;23.320;2022-10-31T14:13:35;95253.97;;;22.73;58.20
38400;BME280;24180;42.676;23.320;2022-10-31T14:16:06;95257.63;;;22.72;57.00
38400;BME280;24180;42.676;23.320;2022-10-31T14:18:44;95254.56;;;22.75;57.91
38400;BME280;24180;42.676;23.320;2022-10-31T14:23:50;95261.44;;;22.83;59.80
38400;BME280;24180;42.676;23.320;2022-10-31T14:28:50;95256.38;;;22.75;60.32
38400;BME280;24180;42.676;23.320;2022-10-31T14:31:53;95264.13;;;22.70;60.35
38400;BME280;24180;42.676;23.320;2022-10-31T14:34:31;95268.34;;;22.51;62.08
38400;BME280;24180;42.676;23.320;2022-10-31T14:53:05;95268.69;;;21.76;70.50
38400;BME280;24180;42.676;23.320;2022-10-31T14:55:32;95271.69;;;21.60;72.38
38400;BME280;24180;42.676;23.320;2022-10-31T14:58:02;95263.31;;;21.36;74.89
38400;BME280;24180;42.676;23.320;2022-10-31T15:00:31;95264.44;;;21.14;76.66
38400;BME280;24180;42.676;23.320;2022-10-31T15:03:13;95262.28;;;20.90;79.00
38400;BME280;24180;42.676;23.320;2022-10-31T15:06:05;95261.78;;;20.80;80.12
38400;BME280;24180;42.676;23.320;2022-10-31T15:13:51;95272.44;;;20.37;82.60
38400;BME280;24180;42.676;23.320;2022-10-31T15:16:22;95270.56;;;20.31;85.58
38400;BME280;24180;42.676;23.320;2022-10-31T15:19:03;95273.25;;;20.17;87.73
38400;BME280;24180;42.676;23.320;2022-10-31T15:21:32;95275.31;;;20.00;89.49
38400;BME280;24180;42.676;23.320;2022-10-31T15:24:00;95277.25;;;19.91;90.93